Time;durP1;ratioP1;P1;durP2;ratioP2;P2;SDS_P1;SDS_P2;PMS_P1;PMS_P2;Temp;Humidity;BMP_temperature;BMP_pressure;BME280_temperature;BME280_humidity;BME280_pressure;Samples;Min_cycle;Max_cycle;Signal;HPM_P1;HPM_P2
2023/06/02 00:01:40;;;;;;;1.00;0.90;;;;;;;14.28;70.85;99259.16;5054277;28;20052;-64
2023/06/02 00:04:09;;;;;;;0.50;0.50;;;;;;;14.23;71.19;99263.56;5054111;28;20131;-64
2023/06/02 00:06:39;;;;;;;0.85;0.80;;;;;;;14.12;71.36;99260.38;5054214;28;20103;-64
2023/06/02 00:09:08;;;;;;;0.40;0.40;;;;;;;13.96;71.86;99259.03;5054119;28;20045;-64
2023/06/02 00:11:38;;;;;;;0.60;0.60;;;;;;;13.95;72.03;99252.19;5054054;28;20048;-64
2023/06/02 00:14:08;;;;;;;0.30;0.30;;;;;;;13.98;72.08;99262.41;5053452;28;20442;-64
2023/06/02 00:16:46;;;;;;;1.33;0.80;;;;;;;13.87;72.02;99256.63;5054248;28;20040;-64
2023/06/02 00:19:18;;;;;;;0.45;0.45;;;;;;;13.71;73.01;99257.84;5053982;28;20041;-64
2023/06/02 00:21:48;;;;;;;1.23;1.02;;;;;;;13.53;73.02;99253.09;5054286;28;20064;-64
2023/06/02 00:24:19;;;;;;;;;;;;;;;13.56;73.48;99258.13;5054255;28;20124;-64
2023/06/02 00:26:48;;;;;;;0.50;0.50;;;;;;;13.56;73.66;99258.13;5053649;28;19920;-64
2023/06/02 00:29:17;;;;;;;0.50;0.50;;;;;;;13.59;73.92;99253.81;5053794;28;20099;-63
2023/06/02 00:31:48;;;;;;;0.50;0.50;;;;;;;13.62;73.43;99252.91;5053680;28;20059;-64
2023/06/02 00:34:17;;;;;;;0.63;0.63;;;;;;;13.63;73.29;99244.34;5053504;28;20049;-63
2023/06/02 00:36:46;;;;;;;0.73;0.73;;;;;;;13.60;73.30;99262.34;5052346;28;20055;-64
2023/06/02 00:39:15;;;;;;;0.60;0.60;;;;;;;13.38;73.71;99226.03;5069454;28;20074;-64
2023/06/02 00:41:45;;;;;;;1.17;0.93;;;;;;;13.48;74.01;99257.44;5053603;28;20064;-64
2023/06/02 00:44:15;;;;;;;0.65;0.65;;;;;;;13.38;74.00;99257.63;5052615;28;20090;-64
2023/06/02 00:46:45;;;;;;;0.73;0.73;;;;;;;13.36;74.05;99251.66;5053621;28;20071;-64
2023/06/02 00:49:15;;;;;;;0.85;0.85;;;;;;;13.29;74.18;99257.78;5053516;28;20490;-64
2023/06/02 00:51:45;;;;;;;0.55;0.55;;;;;;;13.17;74.34;99252.88;5053822;28;20433;-64
2023/06/02 00:54:15;;;;;;;0.40;0.40;;;;;;;13.11;74.35;99247.88;5053711;28;20037;-64
2023/06/02 00:56:45;;;;;;;0.47;0.47;;;;;;;13.07;74.54;99242.84;5053591;28;20051;-64
2023/06/02 00:59:14;;;;;;;0.50;0.50;;;;;;;13.08;74.71;99250.50;5052464;28;20517;-64
2023/06/02 01:01:45;;;;;;;0.75;0.75;;;;;;;13.19;74.42;99240.91;5052503;28;20112;-64
2023/06/02 01:04:16;;;;;;;0.52;0.52;;;;;;;13.27;74.40;99243.31;5053854;28;20052;-64
2023/06/02 01:06:48;;;;;;;0.50;0.50;;;;;;;13.36;74.27;99243.97;5053457;28;20067;-64
2023/06/02 01:09:19;;;;;;;0.38;0.38;;;;;;;13.56;73.85;99247.88;5053323;28;20045;-64
2023/06/02 01:11:49;;;;;;;0.73;0.70;;;;;;;13.62;73.20;99248.63;5053534;28;20391;-64
2023/06/02 01:14:17;;;;;;;0.40;0.40;;;;;;;13.69;72.88;99239.06;5053143;28;20063;-64
2023/06/02 01:16:49;;;;;;;0.60;0.60;;;;;;;13.74;72.77;99244.97;5051934;28;20302;-64
2023/06/02 01:19:21;;;;;;;1.27;1.02;;;;;;;13.69;72.25;99233.94;5053226;28;20286;-64
2023/06/02 01:21:57;;;;;;;0.50;0.50;;;;;;;13.70;72.39;99240.78;5053254;28;20052;-64
2023/06/02 01:24:33;;;;;;;0.40;0.40;;;;;;;13.57;72.29;99236.75;5053660;28;20045;-64
2023/06/02 01:27:06;;;;;;;0.95;0.82;;;;;;;13.50;72.64;99235.19;5057481;28;20061;-64
2023/06/02 01:29:35;;;;;;;1.55;0.85;;;;;;;13.25;72.71;99229.69;5056103;28;20049;-64
2023/06/02 01:32:11;;;;;;;1.27;0.93;;;;;;;13.25;72.91;99227.97;5057209;28;20060;-64
2023/06/02 01:34:47;;;;;;;0.50;0.50;;;;;;;13.33;73.46;99231.25;5056276;28;20097;-64
2023/06/02 01:37:22;;;;;;;0.55;0.55;;;;;;;13.49;73.26;99225.78;5055965;28;20553;-64
2023/06/02 01:39:55;;;;;;;0.60;0.60;;;;;;;13.60;72.84;99229.00;5057413;28;20495;-64
2023/06/02 01:42:25;;;;;;;0.45;0.45;;;;;;;13.62;72.42;99209.31;5056021;28;20502;-64
2023/06/02 01:44:56;;;;;;;0.90;0.88;;;;;;;13.71;72.11;99221.94;5056841;28;20067;-64
2023/06/02 01:47:25;;;;;;;0.80;0.50;;;;;;;13.74;72.33;99224.44;5056806;28;20068;-64
2023/06/02 01:49:55;;;;;;;0.82;0.70;;;;;;;13.71;72.01;99221.94;5057078;28;20048;-64
2023/06/02 01:52:24;;;;;;;0.40;0.40;;;;;;;13.70;72.38;99221.09;5055384;28;20053;-64
2023/06/02 01:54:54;;;;;;;0.70;0.70;;;;;;;13.78;72.05;99231.19;5056730;28;20127;-64
2023/06/02 01:57:23;;;;;;;1.00;0.70;;;;;;;13.71;71.71;99227.06;5056515;28;20053;-64
2023/06/02 01:59:52;;;;;;;2.42;1.27;;;;;;;13.64;71.98;99216.09;5055381;28;20155;-64
2023/06/02 02:02:21;;;;;;;0.47;0.47;;;;;;;13.67;72.11;99217.75;5056517;28;20049;-64
2023/06/02 02:04:50;;;;;;;0.70;0.70;;;;;;;13.70;71.62;99215.13;5056539;28;20052;-64
2023/06/02 02:07:19;;;;;;;0.52;0.52;;;;;;;13.74;71.80;99216.75;5056525;28;20052;-64
2023/06/02 02:09:49;;;;;;;0.82;0.68;;;;;;;13.76;71.42;99209.84;5056608;28;20110;-64
2023/06/02 02:12:19;;;;;;;0.82;0.82;;;;;;;13.79;71.67;99209.81;5056204;28;20127;-64
2023/06/02 02:14:50;;;;;;;1.02;0.70;;;;;;;13.80;71.21;99204.63;5055167;28;20128;-64
2023/06/02 02:17:24;;;;;;;2.55;1.60;;;;;;;13.76;71.48;99202.16;5055016;28;20053;-64
2023/06/02 02:19:55;;;;;;;0.55;0.55;;;;;;;13.66;71.76;99198.94;5056238;28;20048;-64
2023/06/02 02:22:25;;;;;;;1.27;1.17;;;;;;;13.69;71.72;99196.31;5056392;28;20461;-64
2023/06/02 02:24:54;;;;;;;0.52;0.52;;;;;;;13.70;71.72;99194.63;5056234;28;20461;-64
2023/06/02 02:27:24;;;;;;;1.75;1.13;;;;;;;13.61;71.55;99200.75;5054891;28;20051;-64
2023/06/02 02:29:53;;;;;;;0.65;0.55;;;;;;;13.34;72.23;99176.53;5054880;28;20087;-64
2023/06/02 02:32:22;;;;;;;1.02;0.82;;;;;;;13.39;72.51;99210.59;5054765;28;20402;-64
2023/06/02 02:34:51;;;;;;;1.33;1.20;;;;;;;13.37;72.52;99212.34;5055113;28;20049;-64
2023/06/02 02:37:20;;;;;;;;;;;;;;;13.33;72.83;99209.88;5055695;28;20060;-64
2023/06/02 02:40:10;;;;;;;0.80;0.80;;;;;;;13.34;72.71;99212.41;5054583;28;19959;-64
2023/06/02 02:42:40;;;;;;;;;;;;;;;13.31;72.62;99214.19;5038746;28;20044;-64
2023/06/02 02:45:10;;;;;;;0.75;0.75;;;;;;;13.33;72.42;99215.00;5054740;28;19928;-64
2023/06/02 02:47:39;;;;;;;0.60;0.60;;;;;;;13.42;72.31;99210.56;5055830;28;20052;-64
2023/06/02 02:50:09;;;;;;;0.57;0.57;;;;;;;13.48;71.85;99208.75;5054643;28;20044;-64
2023/06/02 02:52:38;;;;;;;0.65;0.65;;;;;;;13.57;71.82;99213.69;5055644;28;20037;-64
2023/06/02 02:55:08;;;;;;;0.63;0.63;;;;;;;13.67;71.22;99212.63;5055904;28;20053;-64
2023/06/02 02:57:38;;;;;;;1.00;0.95;;;;;;;13.67;71.69;99215.19;5055467;28;20286;-64
2023/06/02 03:00:09;;;;;;;0.50;0.50;;;;;;;13.73;71.42;99215.03;5054571;28;20041;-63
2023/06/02 03:02:39;;;;;;;2.38;0.88;;;;;;;13.70;71.51;99204.88;5055501;28;20041;-64
2023/06/02 03:05:13;;;;;;;0.50;0.50;;;;;;;13.59;71.66;99209.38;5055717;28;20045;-64
2023/06/02 03:07:46;;;;;;;1.05;0.95;;;;;;;13.58;72.14;99215.38;5055744;28;20056;-64
2023/06/02 03:10:16;;;;;;;0.82;0.77;;;;;;;13.63;72.20;99213.56;5055215;28;20132;-64
2023/06/02 03:12:47;;;;;;;0.63;0.63;;;;;;;13.54;72.28;99208.59;5054110;28;20041;-64
2023/06/02 03:15:19;;;;;;;0.95;0.77;;;;;;;13.42;72.76;99197.72;5055595;28;20235;-64
2023/06/02 03:17:50;;;;;;;0.70;0.70;;;;;;;13.51;73.01;99213.81;5055359;28;20068;-63
2023/06/02 03:20:21;;;;;;;0.43;0.43;;;;;;;13.51;73.07;99216.38;5053963;28;20037;-64
2023/06/02 03:22:52;;;;;;;1.55;1.15;;;;;;;13.56;73.38;99227.38;5055037;28;20045;-64
2023/06/02 03:25:21;;;;;;;0.80;0.80;;;;;;;13.54;73.31;99222.28;5053898;28;20056;-64
2023/06/02 03:27:53;;;;;;;1.33;1.23;;;;;;;13.57;73.52;99224.78;5054098;28;20053;-64
2023/06/02 03:30:24;;;;;;;0.60;0.60;;;;;;;13.57;73.56;99223.94;5054917;28;20071;-64
2023/06/02 03:32:58;;;;;;;0.60;0.60;;;;;;;13.70;73.48;99220.25;5054715;28;20071;-64
2023/06/02 03:35:29;;;;;;;4.35;2.15;;;;;;;13.74;73.29;99224.44;5053919;28;20091;-63
2023/06/02 03:37:58;;;;;;;0.40;0.38;;;;;;;13.75;73.21;99233.84;5053706;28;20041;-64
2023/06/02 03:40:28;;;;;;;0.40;0.40;;;;;;;13.73;73.21;99230.44;5053777;28;20063;-64
2023/06/02 03:42:58;;;;;;;0.68;0.68;;;;;;;13.78;73.06;99234.59;5054569;28;20136;-63
2023/06/02 03:45:28;;;;;;;0.85;0.75;;;;;;;13.87;72.65;99234.41;5054898;28;20384;-64
2023/06/02 03:47:57;;;;;;;1.15;0.73;;;;;;;13.94;72.55;99237.69;5053683;28;20059;-64
2023/06/02 03:50:27;;;;;;;1.10;1.02;;;;;;;13.94;72.15;99240.28;5054650;28;20056;-64
2023/06/02 03:52:56;;;;;;;1.45;1.33;;;;;;;14.00;72.16;99235.00;5053410;28;20052;-64
2023/06/02 03:55:25;;;;;;;0.77;0.77;;;;;;;14.06;71.81;99239.97;5054456;28;20049;-63
2023/06/02 03:57:54;;;;;;;0.60;0.60;;;;;;;14.13;71.85;99240.72;5053228;28;20045;-64
2023/06/02 04:00:23;;;;;;;0.50;0.50;;;;;;;14.12;71.54;99234.72;5053057;28;20049;-64
2023/06/02 04:02:57;;;;;;;0.50;0.50;;;;;;;14.15;71.40;99226.13;5054536;28;20289;-64
2023/06/02 04:05:26;;;;;;;2.20;0.90;;;;;;;14.25;72.12;99241.28;5053023;28;20049;-64
2023/06/02 04:07:56;;;;;;;0.60;0.60;;;;;;;14.26;72.60;99248.09;5053090;28;20049;-64
2023/06/02 04:10:26;;;;;;;0.60;0.60;;;;;;;14.31;72.25;99236.03;5053195;28;20052;-64
2023/06/02 04:12:55;;;;;;;0.70;0.70;;;;;;;14.54;71.61;99249.16;5054322;28;20525;-64
2023/06/02 04:15:24;;;;;;;0.60;0.60;;;;;;;14.60;71.34;99241.34;5053975;28;20055;-64
2023/06/02 04:17:53;;;;;;;1.30;1.20;;;;;;;14.69;71.09;99241.09;5052751;28;20053;-64
2023/06/02 04:20:23;;;;;;;0.98;0.98;;;;;;;14.78;70.37;99238.31;5052859;28;20041;-64
2023/06/02 04:22:52;;;;;;;2.85;0.88;;;;;;;14.83;70.31;99232.22;5052774;28;20491;-64
2023/06/02 04:25:21;;;;;;;0.75;0.65;;;;;;;14.88;70.33;99238.06;5052830;28;20077;-64
2023/06/02 04:27:50;;;;;;;0.70;0.70;;;;;;;14.89;70.52;99224.34;5053046;28;20075;-65
2023/06/02 04:30:18;;;;;;;3.65;1.23;;;;;;;15.02;69.93;99231.69;5053853;28;20045;-64
2023/06/02 04:32:49;;;;;;;5.53;2.72;;;;;;;15.19;69.82;99233.81;5054149;28;20057;-64
2023/06/02 04:35:19;;;;;;;1.30;0.77;;;;;;;15.27;68.89;99242.19;5052517;28;20041;-64
2023/06/02 04:37:50;;;;;;;3.30;0.80;;;;;;;15.34;68.55;99228.28;5052417;28;20041;-64
2023/06/02 04:40:19;;;;;;;0.55;0.55;;;;;;;15.64;68.54;99234.34;5052757;28;20049;-64
2023/06/02 04:42:47;;;;;;;0.70;0.70;;;;;;;15.81;67.95;99234.72;5053630;28;20083;-64
2023/06/02 04:45:20;;;;;;;0.50;0.50;;;;;;;16.06;67.06;99239.09;5052375;28;20073;-64
2023/06/02 04:47:51;;;;;;;2.15;1.95;;;;;;;16.19;66.60;99236.13;5053929;28;20063;-64
2023/06/02 04:50:19;;;;;;;0.50;0.50;;;;;;;16.28;66.28;99217.81;5053443;28;20051;-64
2023/06/02 04:52:50;;;;;;;0.80;0.60;;;;;;;16.43;65.58;99231.09;5054048;28;20048;-63
2023/06/02 04:55:20;;;;;;;1.02;0.93;;;;;;;16.41;65.25;99226.88;5052245;28;20033;-64
2023/06/02 04:57:51;;;;;;;0.95;0.85;;;;;;;16.45;64.87;99223.28;5052344;28;20049;-63
2023/06/02 05:00:20;;;;;;;0.90;0.88;;;;;;;16.60;65.04;99226.25;5053176;28;20116;-64
2023/06/02 05:02:50;;;;;;;7.25;0.77;;;;;;;16.72;64.45;99227.59;5053641;28;20102;-64
2023/06/02 05:05:20;;;;;;;1.38;1.25;;;;;;;16.78;64.05;99227.38;5053289;28;20037;-64
2023/06/02 05:07:52;;;;;;;;;;;;;;;16.80;63.94;99223.00;5052595;28;20049;-64
2023/06/02 05:10:21;;;;;;;0.40;0.40;;;;;;;16.94;63.99;99228.53;5052362;28;20007;-63
2023/06/02 05:12:53;;;;;;;2.33;1.13;;;;;;;16.95;63.70;99195.88;5053268;28;20045;-63
2023/06/02 05:15:22;;;;;;;1.70;1.33;;;;;;;17.15;63.54;99227.84;5053207;28;20051;-64
2023/06/02 05:17:53;;;;;;;0.68;0.65;;;;;;;17.34;63.65;99225.44;5053245;28;20478;-64
2023/06/02 05:20:24;;;;;;;0.50;0.50;;;;;;;17.48;63.58;99219.78;5053221;28;20148;-64
2023/06/02 05:22:55;;;;;;;0.63;0.63;;;;;;;17.55;63.70;99229.03;5053219;28;20048;-64
2023/06/02 05:25:24;;;;;;;0.85;0.65;;;;;;;17.55;63.87;99226.44;5051840;28;20056;-63
2023/06/02 05:27:53;;;;;;;1.38;1.23;;;;;;;17.67;63.60;99226.00;5053316;28;20045;-65
2023/06/02 05:30:22;;;;;;;2.03;0.97;;;;;;;17.84;63.32;99228.81;5051877;28;20128;-64
2023/06/02 05:32:50;;;;;;;2.58;1.02;;;;;;;17.97;63.29;99224.88;5053435;28;20417;-64
2023/06/02 05:35:20;;;;;;;0.80;0.75;;;;;;;18.01;63.11;99231.59;5053068;28;20513;-65
2023/06/02 05:37:49;;;;;;;1.10;1.00;;;;;;;18.03;62.78;99230.66;5052890;28;20119;-63
2023/06/02 05:40:20;;;;;;;0.45;0.45;;;;;;;18.17;62.36;99227.53;5053219;28;20056;-64
2023/06/02 05:42:49;;;;;;;1.52;1.00;;;;;;;18.34;61.92;99229.44;5052986;28;20049;-63
2023/06/02 05:45:19;;;;;;;0.68;0.68;;;;;;;18.53;61.22;99225.25;5051869;28;20095;-65
2023/06/02 05:47:51;;;;;;;0.88;0.85;;;;;;;18.68;60.76;99220.31;5051606;28;20491;-64
2023/06/02 05:50:22;;;;;;;0.70;0.65;;;;;;;18.82;60.77;99226.66;5053127;28;20049;-64
2023/06/02 05:52:51;;;;;;;0.82;0.82;;;;;;;18.86;60.25;99236.00;5051732;28;20490;-63
2023/06/02 05:55:22;;;;;;;0.70;0.70;;;;;;;18.92;60.46;99233.13;5052782;28;20045;-64
2023/06/02 05:57:52;;;;;;;0.52;0.52;;;;;;;19.12;60.19;99238.31;5053249;28;20056;-64
2023/06/02 06:00:22;;;;;;;0.75;0.75;;;;;;;19.29;59.80;99228.09;5051891;28;20407;-65
2023/06/02 06:02:51;;;;;;;0.57;0.57;;;;;;;19.28;59.65;99218.66;5051923;28;20131;-64
2023/06/02 06:05:27;;;;;;;1.02;0.90;;;;;;;19.41;59.37;99225.00;5051760;28;20049;-64
2023/06/02 06:07:56;;;;;;;1.65;1.20;;;;;;;19.49;59.29;99230.66;5051863;28;20052;-64
2023/06/02 06:10:26;;;;;;;2.15;1.27;;;;;;;19.69;59.25;99227.19;5051633;28;20517;-64
2023/06/02 06:12:56;;;;;;;1.10;0.90;;;;;;;19.94;59.32;99228.59;5056422;28;20132;-65
2023/06/02 06:15:25;;;;;;;0.50;0.50;;;;;;;20.13;59.12;99228.59;5056237;28;20041;-65
2023/06/02 06:17:54;;;;;;;0.63;0.63;;;;;;;20.27;58.83;99226.25;5056009;28;20057;-65
2023/06/02 06:20:23;;;;;;;2.33;0.73;;;;;;;20.45;58.75;99230.53;5054915;28;20048;-65
2023/06/02 06:22:52;;;;;;;0.50;0.50;;;;;;;20.55;58.47;99210.19;5054932;28;20492;-65
2023/06/02 06:25:26;;;;;;;0.57;0.57;;;;;;;20.66;58.64;99223.47;5056052;28;20053;-65
2023/06/02 06:27:56;;;;;;;0.50;0.50;;;;;;;20.54;57.92;99196.38;5055091;28;20512;-65
2023/06/02 06:30:26;;;;;;;0.73;0.73;;;;;;;20.65;57.68;99214.03;5056343;28;20060;-65
2023/06/02 06:33:00;;;;;;;5.00;1.98;;;;;;;20.88;57.24;99223.25;5055944;28;20076;-65
2023/06/02 06:35:30;;;;;;;0.88;0.55;;;;;;;21.05;56.82;99226.72;5054700;28;20555;-65
2023/06/02 06:38:04;;;;;;;0.85;0.82;;;;;;;21.12;55.93;99222.88;5054899;28;20445;-65
2023/06/02 06:40:35;;;;;;;0.77;0.50;;;;;;;21.16;55.24;99229.59;5054915;28;20072;-64
2023/06/02 06:43:04;;;;;;;1.65;1.10;;;;;;;21.25;55.09;99229.16;5054768;28;20064;-64
2023/06/02 06:46:05;;;;;;;0.82;0.60;;;;;;;21.21;55.04;99211.22;5055970;28;20129;-65
2023/06/02 06:48:34;;;;;;;0.50;0.50;;;;;;;21.40;55.00;99229.28;5055746;28;20051;-64
2023/06/02 06:51:03;;;;;;;0.90;0.90;;;;;;;21.54;54.78;99229.38;5055703;28;20053;-63
2023/06/02 06:53:32;;;;;;;0.65;0.60;;;;;;;21.51;54.67;99198.38;5054675;28;20055;-64
2023/06/02 06:56:03;;;;;;;0.70;0.70;;;;;;;21.74;54.45;99221.38;5055557;28;20536;-65
2023/06/02 06:58:33;;;;;;;0.50;0.50;;;;;;;21.88;54.49;99222.34;5055257;28;20521;-64
2023/06/02 07:01:02;;;;;;;1.37;0.97;;;;;;;21.96;54.41;99216.72;5055582;28;20538;-64
2023/06/02 07:03:30;;;;;;;0.83;0.83;;;;;;;22.14;54.19;99218.34;5055865;28;20071;-65
2023/06/02 07:06:00;;;;;;;1.65;1.10;;;;;;;22.30;54.43;99221.75;5055763;28;20286;-65
2023/06/02 07:08:29;;;;;;;2.03;1.00;;;;;;;22.51;53.34;99220.53;5055643;28;20482;-64
2023/06/02 07:10:58;;;;;;;1.23;1.02;;;;;;;22.66;52.12;99217.09;5055630;28;20051;-64
2023/06/02 07:13:29;;;;;;;0.80;0.80;;;;;;;22.74;52.04;99210.63;5055191;28;20455;-64
2023/06/02 07:15:58;;;;;;;1.73;1.33;;;;;;;22.80;51.51;99220.66;5055097;28;20045;-64
2023/06/02 07:18:26;;;;;;;0.70;0.60;;;;;;;22.76;51.44;99211.38;5055331;28;20411;-65
2023/06/02 07:20:55;;;;;;;0.70;0.70;;;;;;;22.88;51.92;99218.47;5055371;28;20270;-65
2023/06/02 07:23:24;;;;;;;1.83;1.02;;;;;;;22.96;51.63;99209.28;5053765;28;20049;-65
2023/06/02 07:25:53;;;;;;;0.50;0.50;;;;;;;23.10;51.21;99208.47;5037084;28;20102;-65
2023/06/02 07:28:22;;;;;;;0.60;0.60;;;;;;;23.33;51.44;99220.97;5054949;28;20049;-65
2023/06/02 07:31:08;;;;;;;0.52;0.52;;;;;;;23.51;50.48;99216.44;5053720;28;20372;-65
2023/06/02 07:33:39;;;;;;;0.60;0.60;;;;;;;23.56;50.39;99215.25;5054869;28;20604;-65
2023/06/02 07:36:08;;;;;;;1.00;0.98;;;;;;;23.70;50.21;99220.44;5054865;28;20079;-65
2023/06/02 07:38:36;;;;;;;0.77;0.65;;;;;;;23.82;49.88;99219.69;5053856;28;20049;-65
2023/06/02 07:41:06;;;;;;;0.65;0.60;;;;;;;23.95;49.20;99220.59;5054710;28;20135;-64
2023/06/02 07:43:35;;;;;;;0.47;0.47;;;;;;;23.95;48.17;99212.75;5054956;28;20041;-64
2023/06/02 07:46:04;;;;;;;0.65;0.65;;;;;;;23.99;47.57;99218.63;5054643;28;20492;-65
2023/06/02 07:48:35;;;;;;;;;;;;;;;24.24;47.54;99229.22;5054895;28;20048;-65
2023/06/02 07:51:04;;;;;;;0.50;0.50;;;;;;;24.35;46.48;99229.38;5054804;28;19967;-65
2023/06/02 07:53:33;;;;;;;1.25;0.98;;;;;;;24.35;46.70;99215.50;5054764;28;20053;-65
2023/06/02 07:56:02;;;;;;;0.75;0.73;;;;;;;24.38;46.48;99210.06;5054477;28;20033;-64
2023/06/02 07:58:31;;;;;;;0.60;0.60;;;;;;;24.44;45.44;99212.28;5054593;28;20064;-65
2023/06/02 08:01:00;;;;;;;0.73;0.73;;;;;;;24.65;45.37;99210.88;5054261;28;20048;-65
2023/06/02 08:03:29;;;;;;;0.40;0.40;;;;;;;24.85;44.81;99215.66;5054265;28;20297;-65
2023/06/02 08:06:00;;;;;;;1.52;1.38;;;;;;;25.03;44.64;99211.81;5054555;28;20072;-65
2023/06/02 08:08:29;;;;;;;1.70;0.80;;;;;;;25.21;43.90;99210.59;5054395;28;20509;-65
2023/06/02 08:10:59;;;;;;;0.57;0.57;;;;;;;25.18;42.69;99210.78;5069851;28;20049;-65
2023/06/02 08:13:29;;;;;;;0.50;0.50;;;;;;;25.13;41.69;99181.53;5054358;28;20071;-65
2023/06/02 08:15:59;;;;;;;1.08;0.80;;;;;;;25.33;40.72;99208.06;5053940;28;20599;-65
2023/06/02 08:18:48;;;;;;;7.90;1.83;;;;;;;25.39;40.33;99213.69;5052771;28;20037;-65
2023/06/02 08:21:18;;;;;;;0.68;0.68;;;;;;;25.55;40.84;99209.13;5053969;28;20045;-65
2023/06/02 08:23:48;;;;;;;0.82;0.82;;;;;;;25.69;41.66;99210.78;5054368;28;20045;-65
2023/06/02 08:26:17;;;;;;;0.50;0.50;;;;;;;25.80;41.11;99210.84;5053701;28;20080;-65
2023/06/02 08:28:49;;;;;;;2.15;1.35;;;;;;;25.82;40.50;99206.34;5054210;28;20051;-65
2023/06/02 08:31:21;;;;;;;0.65;0.55;;;;;;;25.65;39.95;99188.41;5053796;28;20055;-65
2023/06/02 08:33:52;;;;;;;0.43;0.43;;;;;;;25.56;39.11;99209.94;5053227;28;20132;-66
2023/06/02 08:36:23;;;;;;;0.30;0.30;;;;;;;25.57;39.97;99217.72;5053512;28;20124;-65
2023/06/02 08:38:52;;;;;;;0.68;0.60;;;;;;;25.63;40.30;99206.81;5054146;28;20049;-65
2023/06/02 08:41:21;;;;;;;;;;;;;;;25.89;41.33;99216.28;5053992;28;20462;-64
2023/06/02 08:43:52;;;;;;;0.52;0.52;;;;;;;25.85;40.66;99206.13;5053974;28;20043;-65
2023/06/02 08:46:22;;;;;;;0.50;0.50;;;;;;;25.87;41.05;99206.84;5053553;28;20069;-64
2023/06/02 08:48:55;;;;;;;0.70;0.50;;;;;;;25.85;41.19;99206.13;5053474;28;20091;-65
2023/06/02 08:51:26;;;;;;;1.33;0.85;;;;;;;25.80;41.61;99205.63;5053475;28;20041;-65
2023/06/02 08:53:57;;;;;;;5.47;0.50;;;;;;;26.01;41.85;99191.00;5053600;28;20496;-64
2023/06/02 08:56:26;;;;;;;0.32;0.32;;;;;;;26.15;41.15;99204.00;5053300;28;20072;-65
2023/06/02 08:58:55;;;;;;;0.40;0.40;;;;;;;26.24;40.73;99207.72;5053836;28;20128;-65
2023/06/02 09:01:23;;;;;;;1.65;0.55;;;;;;;26.23;40.61;99200.81;5053659;28;20051;-65
2023/06/02 09:03:53;;;;;;;0.50;0.50;;;;;;;26.31;40.54;99204.56;5053663;28;20482;-65
2023/06/02 09:06:25;;;;;;;0.65;0.65;;;;;;;26.38;40.47;99192.69;5053203;28;20106;-65
2023/06/02 09:08:58;;;;;;;0.80;0.80;;;;;;;26.56;40.80;99193.94;5053463;28;20067;-65
2023/06/02 09:11:28;;;;;;;0.55;0.55;;;;;;;26.48;40.47;99201.53;5053313;28;20495;-65
2023/06/02 09:13:57;;;;;;;0.45;0.45;;;;;;;26.57;40.72;99195.63;5053670;28;20080;-65
2023/06/02 09:16:37;;;;;;;0.73;0.73;;;;;;;26.77;41.61;99201.19;5053048;28;20098;-65
2023/06/02 09:19:06;;;;;;;0.73;0.73;;;;;;;26.53;41.37;99172.41;5053250;28;20049;-65
2023/06/02 09:21:36;;;;;;;0.45;0.45;;;;;;;26.73;41.45;99199.72;5053163;28;20132;-65
2023/06/02 09:24:07;;;;;;;0.40;0.40;;;;;;;26.84;41.01;99197.16;5053338;28;20495;-65
2023/06/02 09:26:39;;;;;;;1.23;1.02;;;;;;;26.92;40.75;99194.81;5051833;28;20049;-65
2023/06/02 09:29:10;;;;;;;0.60;0.60;;;;;;;27.09;40.40;99202.25;5053099;28;20495;-65
2023/06/02 09:31:47;;;;;;;0.85;0.85;;;;;;;27.11;40.22;99195.09;5053152;28;20060;-65
2023/06/02 09:34:18;;;;;;;0.60;0.60;;;;;;;27.27;39.77;99199.03;5053078;28;20128;-65
2023/06/02 09:36:49;;;;;;;0.55;0.55;;;;;;;27.40;39.41;99198.97;5052916;28;20045;-65
2023/06/02 09:39:33;;;;;;;0.50;0.50;;;;;;;27.44;39.98;99192.53;5053034;28;20498;-65
2023/06/02 09:42:02;;;;;;;1.08;0.90;;;;;;;27.54;40.32;99166.44;5053391;28;20049;-65
2023/06/02 09:44:31;;;;;;;1.20;1.10;;;;;;;27.73;40.39;99193.72;5053211;28;20063;-64
2023/06/02 09:47:02;;;;;;;0.40;0.40;;;;;;;27.51;39.94;99187.63;5057027;28;20563;-65
2023/06/02 09:49:39;;;;;;;0.40;0.40;;;;;;;27.43;39.90;99184.75;5057073;28;20112;-64
2023/06/02 09:52:13;;;;;;;1.38;0.95;;;;;;;27.26;40.30;99183.41;5056721;28;20095;-64
2023/06/02 09:54:45;;;;;;;0.75;0.75;;;;;;;27.15;40.57;99188.66;5057086;28;20145;-65
2023/06/02 09:57:15;;;;;;;0.40;0.40;;;;;;;27.32;40.13;99177.72;5056525;28;20117;-65
2023/06/02 09:59:45;;;;;;;1.10;0.73;;;;;;;27.58;40.28;99187.03;5056908;28;20045;-65
2023/06/02 10:02:14;;;;;;;0.57;0.57;;;;;;;27.62;39.74;99185.84;5056531;28;20050;-65
2023/06/02 10:04:46;;;;;;;0.77;0.75;;;;;;;27.75;39.23;99180.47;5055703;28;20045;-65
2023/06/02 10:07:28;;;;;;;0.40;0.40;;;;;;;27.96;39.16;99189.25;5056322;28;20052;-65
2023/06/02 10:10:17;;;;;;;0.68;0.68;;;;;;;27.96;39.23;99186.63;5056862;28;20562;-64
2023/06/02 10:13:11;;;;;;;0.80;0.80;;;;;;;27.96;39.54;99175.28;5056786;28;20431;-66
2023/06/02 10:15:50;;;;;;;1.50;0.75;;;;;;;28.06;39.80;99173.63;5056315;28;20041;-63
2023/06/02 10:18:43;;;;;;;1.00;0.90;;;;;;;28.04;39.93;99176.41;5056217;28;20041;-66
2023/06/02 10:21:22;;;;;;;0.63;0.63;;;;;;;27.93;39.52;99177.22;5056319;28;20091;-64
2023/06/02 10:24:02;;;;;;;0.75;0.75;;;;;;;28.15;39.71;99172.88;5056314;28;20098;-64
2023/06/02 10:26:50;;;;;;;0.40;0.40;;;;;;;28.52;40.18;99166.31;5056027;28;20080;-64
2023/06/02 10:29:20;;;;;;;0.50;0.50;;;;;;;28.64;40.50;99175.84;5056449;28;20449;-64
2023/06/02 10:31:49;;;;;;;0.75;0.75;;;;;;;28.69;40.31;99131.63;5056369;28;20049;-64
2023/06/02 10:34:37;;;;;;;0.60;0.60;;;;;;;28.97;38.26;99162.50;5055948;28;20045;-63
2023/06/02 10:37:17;;;;;;;0.50;0.50;;;;;;;28.79;37.26;99166.69;5055904;28;20037;-64
2023/06/02 10:39:54;;;;;;;1.15;0.85;;;;;;;28.83;37.19;99149.69;5055950;28;20056;-64
2023/06/02 10:42:25;;;;;;;1.05;0.85;;;;;;;28.84;36.68;99156.59;5055808;28;20052;-64
2023/06/02 10:45:26;;;;;;;0.50;0.50;;;;;;;28.90;37.17;99156.09;5056210;28;20049;-65
2023/06/02 10:47:56;;;;;;;0.60;0.60;;;;;;;29.03;36.50;99151.47;5055613;28;20140;-65
2023/06/02 10:50:24;;;;;;;0.68;0.57;;;;;;;29.37;37.53;99143.38;5055607;28;20057;-65
2023/06/02 10:53:09;;;;;;;1.08;0.93;;;;;;;29.61;37.51;99151.75;5055586;28;20049;-65
2023/06/02 10:55:41;;;;;;;0.95;0.80;;;;;;;29.65;38.06;99148.72;5055730;28;20509;-65
2023/06/02 10:58:12;;;;;;;0.80;0.80;;;;;;;29.25;37.34;99149.69;5054730;28;20037;-65
2023/06/02 11:00:46;;;;;;;0.50;0.50;;;;;;;28.63;37.54;99137.38;5055828;28;20120;-65
2023/06/02 11:03:29;;;;;;;0.80;0.70;;;;;;;28.37;38.34;99154.44;5055587;28;20080;-65
2023/06/02 11:06:17;;;;;;;0.73;0.70;;;;;;;28.15;38.39;99151.88;5055461;28;20060;-65
2023/06/02 11:08:48;;;;;;;0.73;0.73;;;;;;;28.00;39.15;99158.41;5055724;28;20110;-65
2023/06/02 11:11:40;;;;;;;9.07;1.08;;;;;;;27.85;39.32;99160.44;5055760;28;20139;-65
2023/06/02 11:14:10;;;;;;;0.60;0.60;;;;;;;28.05;39.41;99151.00;5055411;28;20041;-65
2023/06/02 11:16:40;;;;;;;1.05;1.00;;;;;;;28.40;39.41;99135.81;5055193;28;20051;-65
2023/06/02 11:19:08;;;;;;;0.65;0.57;;;;;;;29.00;39.05;99150.91;5055066;28;20056;-65
2023/06/02 11:21:37;;;;;;;0.47;0.47;;;;;;;29.42;38.98;99149.88;5055425;28;20041;-65
2023/06/02 11:24:08;;;;;;;0.50;0.50;;;;;;;29.74;38.39;99147.91;5055225;28;20433;-64
2023/06/02 11:26:50;;;;;;;0.77;0.77;;;;;;;29.90;37.18;99142.16;5054863;28;20093;-64
2023/06/02 11:29:21;;;;;;;0.65;0.65;;;;;;;29.91;36.71;99149.09;5055076;28;20096;-64
2023/06/02 11:31:50;;;;;;;0.70;0.70;;;;;;;29.84;35.10;99153.22;5054932;28;20056;-65
2023/06/02 11:34:18;;;;;;;1.10;0.93;;;;;;;30.02;35.20;99151.59;5055153;28;20045;-65
2023/06/02 11:36:48;;;;;;;1.30;1.20;;;;;;;30.31;35.15;99146.34;5054729;28;20131;-65
2023/06/02 11:39:18;;;;;;;0.50;0.50;;;;;;;30.40;35.32;99145.56;5053923;28;20053;-65
2023/06/02 11:41:58;;;;;;;0.50;0.50;;;;;;;30.23;34.44;99143.59;5054976;28;20076;-65
2023/06/02 11:44:28;;;;;;;0.50;0.50;;;;;;;30.21;34.43;99135.00;5054835;28;20055;-65
2023/06/02 11:46:57;;;;;;;0.70;0.70;;;;;;;30.27;33.88;99137.91;5054965;28;20552;-65
2023/06/02 11:49:37;;;;;;;0.70;0.70;;;;;;;30.40;35.05;99135.84;5054798;28;20398;-64
2023/06/02 11:52:08;;;;;;;0.60;0.60;;;;;;;30.44;35.02;99137.22;5054596;28;20045;-65
2023/06/02 11:54:49;;;;;;;0.40;0.40;;;;;;;30.28;35.24;99141.38;5054770;28;20045;-64